Central Wisconsin Airport
KCWA : now visible

Airfield :











YOU CAN JOIN US ON...

 
LOGIN :

Register | Disclaimer

   EN    FR    IT 

 









Legend :    VFR   Marginal VFR   IFR   Intensive IFR   Very Intensive IFR
Visi :
Ceiling :
>= 8 km
>= 3000ft
5 to 8 km
1000 to 3000 ft
1500m to 5 km
500 to 1000 ft
800 to 1500m
200 to 500 ft
< 800m
< 200 ft
Symbols :   Thunderstorms  Fog  Heavy snow  Heavy precipitations  Wind > 20 kt







- Airport Elevation : 1277 ft


KCWA - Central Wisconsin

CURRENT METAR :
  • 181845Z 23009KT 10SM BKN020 25/21 A2976

EXPIRED METARs :
  • 181755Z 21009KT 10SM BKN020 26/21 A2976
  • 181652Z 20008G15KT 10SM BKN020 24/21 A2978

TAF KCWA
Valid from the 18 at 18:00 until the 19 at 18:00 UTC


181730Z 1818/1918 21010G18KT P6SM BKN025
FM190000 20004KT P6SM SCT030 BKN120
FM190400 VRB05KT 3SM BR SCT012 BKN120
FM190500 22006KT 5SM -SHRA BR VCTS BKN050CB
FM190900 VRB05KT 5SM BR OVC012
FM191600 16009KT P6SM BKN025
KZMP FIR / North America



MET'MAP, your aeronautical weather chart ! - Copyright ORBIFLY December 2007 - Disclaimer

ORBIFLY MET'MAP TEAM :

Programming & Development : Alexandra Zaïnal
Concept & Development : Baudouin d'Aumeries
Co-Development & Prog : Marc-Olivier Méhu
Technical & hardware support : Manuel Goepfert

Contact : metmap@orbifly.com




SOURCES & CREDITS :

   NOAA       Earth
Advisory